sensor_id;sensor_type;location;lat;lon;timestamp;P1;durP1;ratioP1;P2;durP2;ratioP2
29838;SDS011;18669;53.356;-1.464;2023-04-01T00:01:41;4.28;;;3.38;;
29838;SDS011;18669;53.356;-1.464;2023-04-01T00:04:26;5.97;;;3.70;;
29838;SDS011;18669;53.356;-1.464;2023-04-01T00:07:11;7.00;;;3.30;;
29838;SDS011;18669;53.356;-1.464;2023-04-01T00:09:56;9.38;;;3.50;;
29838;SDS011;18669;53.356;-1.464;2023-04-01T00:12:41;6.38;;;2.97;;
29838;SDS011;18669;53.356;-1.464;2023-04-01T00:15:25;4.72;;;3.10;;
29838;SDS011;18669;53.356;-1.464;2023-04-01T00:18:10;3.15;;;2.40;;
29838;SDS011;18669;53.356;-1.464;2023-04-01T00:20:55;6.65;;;3.25;;
29838;SDS011;18669;53.356;-1.464;2023-04-01T00:23:41;4.60;;;2.53;;
29838;SDS011;18669;53.356;-1.464;2023-04-01T00:26:25;6.68;;;3.05;;
29838;SDS011;18669;53.356;-1.464;2023-04-01T00:29:10;6.72;;;2.67;;
29838;SDS011;18669;53.356;-1.464;2023-04-01T00:31:58;6.90;;;2.85;;
29838;SDS011;18669;53.356;-1.464;2023-04-01T00:37:28;4.45;;;2.60;;
29838;SDS011;18669;53.356;-1.464;2023-04-01T00:40:25;4.30;;;2.85;;
29838;SDS011;18669;53.356;-1.464;2023-04-01T00:43:11;5.75;;;2.63;;
29838;SDS011;18669;53.356;-1.464;2023-04-01T00:46:02;4.82;;;3.03;;
29838;SDS011;18669;53.356;-1.464;2023-04-01T00:48:51;4.47;;;2.45;;
29838;SDS011;18669;53.356;-1.464;2023-04-01T00:51:39;5.88;;;2.17;;
29838;SDS011;18669;53.356;-1.464;2023-04-01T00:54:26;5.22;;;2.58;;
29838;SDS011;18669;53.356;-1.464;2023-04-01T00:57:14;7.38;;;2.70;;
29838;SDS011;18669;53.356;-1.464;2023-04-01T01:00:06;5.75;;;2.28;;
29838;SDS011;18669;53.356;-1.464;2023-04-01T01:02:56;8.23;;;3.22;;
29838;SDS011;18669;53.356;-1.464;2023-04-01T01:11:50;6.07;;;2.72;;
29838;SDS011;18669;53.356;-1.464;2023-04-01T01:23:50;7.15;;;2.67;;
29838;SDS011;18669;53.356;-1.464;2023-04-01T01:26:55;4.75;;;2.70;;
29838;SDS011;18669;53.356;-1.464;2023-04-01T01:35:44;4.20;;;2.50;;
29838;SDS011;18669;53.356;-1.464;2023-04-01T01:38:34;6.65;;;2.53;;
29838;SDS011;18669;53.356;-1.464;2023-04-01T01:41:20;6.78;;;2.95;;
29838;SDS011;18669;53.356;-1.464;2023-04-01T01:44:11;5.50;;;2.33;;
29838;SDS011;18669;53.356;-1.464;2023-04-01T01:46:58;6.30;;;2.97;;
29838;SDS011;18669;53.356;-1.464;2023-04-01T01:49:44;2.63;;;2.10;;
29838;SDS011;18669;53.356;-1.464;2023-04-01T01:52:30;6.25;;;2.33;;
29838;SDS011;18669;53.356;-1.464;2023-04-01T02:01:13;5.88;;;3.10;;
29838;SDS011;18669;53.356;-1.464;2023-04-01T02:04:01;8.27;;;2.65;;
29838;SDS011;18669;53.356;-1.464;2023-04-01T02:06:53;5.88;;;2.75;;
29838;SDS011;18669;53.356;-1.464;2023-04-01T02:09:46;5.53;;;2.40;;
29838;SDS011;18669;53.356;-1.464;2023-04-01T02:12:32;4.45;;;2.20;;
29838;SDS011;18669;53.356;-1.464;2023-04-01T02:15:19;6.88;;;2.40;;
29838;SDS011;18669;53.356;-1.464;2023-04-01T02:18:05;5.88;;;2.25;;
29838;SDS011;18669;53.356;-1.464;2023-04-01T02:20:51;2.65;;;1.80;;
29838;SDS011;18669;53.356;-1.464;2023-04-01T02:23:36;3.20;;;2.08;;
29838;SDS011;18669;53.356;-1.464;2023-04-01T02:26:22;5.25;;;2.40;;
29838;SDS011;18669;53.356;-1.464;2023-04-01T02:29:09;2.20;;;1.88;;
29838;SDS011;18669;53.356;-1.464;2023-04-01T02:31:56;4.10;;;2.08;;
29838;SDS011;18669;53.356;-1.464;2023-04-01T02:34:42;8.57;;;2.40;;
29838;SDS011;18669;53.356;-1.464;2023-04-01T02:37:28;5.85;;;2.13;;
29838;SDS011;18669;53.356;-1.464;2023-04-01T02:40:13;4.90;;;2.45;;
29838;SDS011;18669;53.356;-1.464;2023-04-01T02:42:58;5.47;;;1.83;;
29838;SDS011;18669;53.356;-1.464;2023-04-01T02:45:43;3.80;;;2.00;;
29838;SDS011;18669;53.356;-1.464;2023-04-01T02:48:28;5.85;;;2.10;;
29838;SDS011;18669;53.356;-1.464;2023-04-01T02:51:14;4.60;;;1.85;;
29838;SDS011;18669;53.356;-1.464;2023-04-01T02:53:59;4.78;;;2.20;;
29838;SDS011;18669;53.356;-1.464;2023-04-01T02:56:44;4.63;;;1.90;;
29838;SDS011;18669;53.356;-1.464;2023-04-01T02:59:29;3.38;;;1.80;;
29838;SDS011;18669;53.356;-1.464;2023-04-01T03:02:14;3.25;;;1.95;;
29838;SDS011;18669;53.356;-1.464;2023-04-01T03:04:59;7.05;;;1.90;;
29838;SDS011;18669;53.356;-1.464;2023-04-01T03:07:45;5.10;;;1.80;;
29838;SDS011;18669;53.356;-1.464;2023-04-01T03:10:30;3.17;;;1.45;;
29838;SDS011;18669;53.356;-1.464;2023-04-01T03:13:14;3.05;;;1.60;;
29838;SDS011;18669;53.356;-1.464;2023-04-01T03:16:01;3.33;;;1.52;;
29838;SDS011;18669;53.356;-1.464;2023-04-01T03:18:47;2.35;;;1.40;;
29838;SDS011;18669;53.356;-1.464;2023-04-01T03:21:33;3.50;;;1.38;;
29838;SDS011;18669;53.356;-1.464;2023-04-01T03:24:19;4.45;;;1.40;;
29838;SDS011;18669;53.356;-1.464;2023-04-01T03:27:04;5.15;;;1.30;;
29838;SDS011;18669;53.356;-1.464;2023-04-01T03:29:49;3.83;;;1.13;;
29838;SDS011;18669;53.356;-1.464;2023-04-01T03:32:34;7.07;;;1.70;;
29838;SDS011;18669;53.356;-1.464;2023-04-01T03:35:18;2.92;;;1.25;;
29838;SDS011;18669;53.356;-1.464;2023-04-01T03:38:03;4.47;;;1.30;;
29838;SDS011;18669;53.356;-1.464;2023-04-01T03:40:48;3.47;;;1.33;;
29838;SDS011;18669;53.356;-1.464;2023-04-01T03:43:33;4.90;;;1.67;;
29838;SDS011;18669;53.356;-1.464;2023-04-01T03:46:18;5.97;;;1.75;;
29838;SDS011;18669;53.356;-1.464;2023-04-01T03:49:10;4.55;;;1.40;;
29838;SDS011;18669;53.356;-1.464;2023-04-01T03:51:55;2.97;;;1.50;;
29838;SDS011;18669;53.356;-1.464;2023-04-01T03:54:40;3.03;;;1.30;;
29838;SDS011;18669;53.356;-1.464;2023-04-01T03:57:25;7.65;;;1.85;;
29838;SDS011;18669;53.356;-1.464;2023-04-01T04:00:10;2.83;;;1.73;;
29838;SDS011;18669;53.356;-1.464;2023-04-01T04:02:56;5.30;;;1.60;;
29838;SDS011;18669;53.356;-1.464;2023-04-01T04:05:46;3.60;;;1.38;;
29838;SDS011;18669;53.356;-1.464;2023-04-01T04:08:33;3.25;;;1.65;;
29838;SDS011;18669;53.356;-1.464;2023-04-01T04:11:19;4.50;;;1.40;;
29838;SDS011;18669;53.356;-1.464;2023-04-01T04:14:05;4.50;;;1.75;;
29838;SDS011;18669;53.356;-1.464;2023-04-01T04:16:50;4.28;;;1.35;;
29838;SDS011;18669;53.356;-1.464;2023-04-01T04:19:35;3.40;;;1.52;;
29838;SDS011;18669;53.356;-1.464;2023-04-01T04:22:19;3.85;;;1.48;;
29838;SDS011;18669;53.356;-1.464;2023-04-01T04:25:04;4.35;;;1.55;;
29838;SDS011;18669;53.356;-1.464;2023-04-01T04:27:50;3.63;;;1.38;;
29838;SDS011;18669;53.356;-1.464;2023-04-01T04:30:34;1.92;;;1.45;;
29838;SDS011;18669;53.356;-1.464;2023-04-01T04:33:19;2.63;;;1.40;;
29838;SDS011;18669;53.356;-1.464;2023-04-01T04:36:05;3.08;;;1.55;;
29838;SDS011;18669;53.356;-1.464;2023-04-01T04:38:50;3.72;;;1.73;;
29838;SDS011;18669;53.356;-1.464;2023-04-01T04:41:36;4.10;;;1.60;;
29838;SDS011;18669;53.356;-1.464;2023-04-01T04:44:21;5.38;;;1.67;;
29838;SDS011;18669;53.356;-1.464;2023-04-01T04:47:06;4.05;;;1.33;;
29838;SDS011;18669;53.356;-1.464;2023-04-01T04:49:51;2.13;;;1.25;;
29838;SDS011;18669;53.356;-1.464;2023-04-01T04:52:36;6.38;;;1.48;;
29838;SDS011;18669;53.356;-1.464;2023-04-01T04:55:21;4.13;;;1.40;;
29838;SDS011;18669;53.356;-1.464;2023-04-01T04:58:06;4.28;;;1.45;;
29838;SDS011;18669;53.356;-1.464;2023-04-01T05:00:51;1.85;;;1.27;;
29838;SDS011;18669;53.356;-1.464;2023-04-01T05:03:36;6.32;;;1.70;;
29838;SDS011;18669;53.356;-1.464;2023-04-01T05:06:21;4.40;;;1.48;;
29838;SDS011;18669;53.356;-1.464;2023-04-01T05:09:06;5.03;;;1.65;;
29838;SDS011;18669;53.356;-1.464;2023-04-01T05:11:51;4.35;;;1.30;;
29838;SDS011;18669;53.356;-1.464;2023-04-01T05:14:36;8.55;;;1.50;;
29838;SDS011;18669;53.356;-1.464;2023-04-01T05:17:21;5.93;;;1.50;;
29838;SDS011;18669;53.356;-1.464;2023-04-01T05:20:06;4.00;;;1.58;;
29838;SDS011;18669;53.356;-1.464;2023-04-01T05:22:55;5.68;;;1.50;;
29838;SDS011;18669;53.356;-1.464;2023-04-01T05:25:40;4.57;;;1.33;;
29838;SDS011;18669;53.356;-1.464;2023-04-01T05:28:25;6.60;;;2.08;;
29838;SDS011;18669;53.356;-1.464;2023-04-01T05:31:10;4.18;;;1.50;;
29838;SDS011;18669;53.356;-1.464;2023-04-01T05:33:55;4.00;;;1.50;;
29838;SDS011;18669;53.356;-1.464;2023-04-01T05:36:40;4.40;;;1.40;;
29838;SDS011;18669;53.356;-1.464;2023-04-01T05:39:25;4.90;;;2.15;;
29838;SDS011;18669;53.356;-1.464;2023-04-01T05:42:10;4.38;;;1.60;;
29838;SDS011;18669;53.356;-1.464;2023-04-01T05:44:55;4.10;;;1.83;;
29838;SDS011;18669;53.356;-1.464;2023-04-01T05:47:40;2.45;;;1.65;;
29838;SDS011;18669;53.356;-1.464;2023-04-01T05:50:26;3.33;;;1.80;;
29838;SDS011;18669;53.356;-1.464;2023-04-01T05:53:14;3.53;;;2.00;;
29838;SDS011;18669;53.356;-1.464;2023-04-01T05:56:02;5.93;;;2.22;;
29838;SDS011;18669;53.356;-1.464;2023-04-01T05:58:54;7.95;;;2.40;;
29838;SDS011;18669;53.356;-1.464;2023-04-01T06:01:42;6.35;;;2.00;;
29838;SDS011;18669;53.356;-1.464;2023-04-01T06:04:34;6.93;;;1.92;;
29838;SDS011;18669;53.356;-1.464;2023-04-01T06:07:25;5.95;;;2.00;;
29838;SDS011;18669;53.356;-1.464;2023-04-01T06:10:13;4.95;;;2.03;;
29838;SDS011;18669;53.356;-1.464;2023-04-01T06:13:05;6.68;;;1.77;;
29838;SDS011;18669;53.356;-1.464;2023-04-01T06:19:22;1.42;;;1.27;;
29838;SDS011;18669;53.356;-1.464;2023-04-01T06:28:32;6.93;;;1.88;;
29838;SDS011;18669;53.356;-1.464;2023-04-01T07:05:03;6.70;;;1.48;;
29838;SDS011;18669;53.356;-1.464;2023-04-01T07:07:50;5.50;;;1.70;;
29838;SDS011;18669;53.356;-1.464;2023-04-01T07:10:45;4.45;;;1.60;;
29838;SDS011;18669;53.356;-1.464;2023-04-01T07:13:45;3.47;;;1.50;;
29838;SDS011;18669;53.356;-1.464;2023-04-01T07:17:22;3.42;;;1.67;;
29838;SDS011;18669;53.356;-1.464;2023-04-01T07:19:59;3.45;;;1.80;;
29838;SDS011;18669;53.356;-1.464;2023-04-01T07:22:47;6.60;;;1.60;;
29838;SDS011;18669;53.356;-1.464;2023-04-01T07:25:35;4.53;;;1.98;;
29838;SDS011;18669;53.356;-1.464;2023-04-01T07:28:22;4.13;;;2.17;;
29838;SDS011;18669;53.356;-1.464;2023-04-01T07:37:06;8.25;;;1.95;;
29838;SDS011;18669;53.356;-1.464;2023-04-01T07:49:08;4.78;;;2.38;;
29838;SDS011;18669;53.356;-1.464;2023-04-01T07:54:57;6.93;;;2.22;;
29838;SDS011;18669;53.356;-1.464;2023-04-01T07:58:01;7.07;;;2.53;;
29838;SDS011;18669;53.356;-1.464;2023-04-01T08:06:45;8.20;;;1.80;;
29838;SDS011;18669;53.356;-1.464;2023-04-01T08:09:49;29.17;;;5.50;;
29838;SDS011;18669;53.356;-1.464;2023-04-01T08:22:04;4.63;;;2.00;;
29838;SDS011;18669;53.356;-1.464;2023-04-01T08:24:56;4.97;;;2.20;;
29838;SDS011;18669;53.356;-1.464;2023-04-01T08:30:54;6.43;;;1.95;;
29838;SDS011;18669;53.356;-1.464;2023-04-01T08:33:44;5.72;;;2.25;;
29838;SDS011;18669;53.356;-1.464;2023-04-01T08:36:36;13.45;;;2.90;;
29838;SDS011;18669;53.356;-1.464;2023-04-01T08:39:37;18.35;;;3.03;;
29838;SDS011;18669;53.356;-1.464;2023-04-01T08:48:15;5.15;;;1.92;;
29838;SDS011;18669;53.356;-1.464;2023-04-01T08:54:38;3.65;;;2.03;;
29838;SDS011;18669;53.356;-1.464;2023-04-01T09:16:28;5.45;;;2.10;;
29838;SDS011;18669;53.356;-1.464;2023-04-01T09:19:20;4.07;;;2.20;;
29838;SDS011;18669;53.356;-1.464;2023-04-01T09:22:25;8.50;;;4.65;;
29838;SDS011;18669;53.356;-1.464;2023-04-01T09:28:28;6.97;;;1.55;;
29838;SDS011;18669;53.356;-1.464;2023-04-01T09:31:22;5.85;;;1.63;;
29838;SDS011;18669;53.356;-1.464;2023-04-01T09:40:43;2.60;;;1.30;;
29838;SDS011;18669;53.356;-1.464;2023-04-01T09:43:53;2.38;;;1.17;;
29838;SDS011;18669;53.356;-1.464;2023-04-01T09:59:09;2.63;;;0.90;;
29838;SDS011;18669;53.356;-1.464;2023-04-01T10:26:44;2.70;;;1.23;;
29838;SDS011;18669;53.356;-1.464;2023-04-01T10:43:23;2.58;;;1.10;;
29838;SDS011;18669;53.356;-1.464;2023-04-01T11:20:06;2.22;;;1.50;;
29838;SDS011;18669;53.356;-1.464;2023-04-01T11:35:19;7.35;;;1.65;;
29838;SDS011;18669;53.356;-1.464;2023-04-01T11:41:20;3.00;;;1.00;;
29838;SDS011;18669;53.356;-1.464;2023-04-01T11:44:21;1.98;;;1.27;;
29838;SDS011;18669;53.356;-1.464;2023-04-01T11:50:43;4.93;;;1.60;;
29838;SDS011;18669;53.356;-1.464;2023-04-01T12:07:18;2.80;;;1.20;;
29838;SDS011;18669;53.356;-1.464;2023-04-01T12:10:06;3.08;;;1.30;;
29838;SDS011;18669;53.356;-1.464;2023-04-01T12:12:59;2.72;;;1.30;;
29838;SDS011;18669;53.356;-1.464;2023-04-01T12:18:50;2.03;;;1.48;;
29838;SDS011;18669;53.356;-1.464;2023-04-01T12:43:44;1.75;;;1.00;;
29838;SDS011;18669;53.356;-1.464;2023-04-01T12:56:40;2.28;;;1.20;;
29838;SDS011;18669;53.356;-1.464;2023-04-01T13:03:22;2.75;;;1.05;;
29838;SDS011;18669;53.356;-1.464;2023-04-01T13:06:16;3.90;;;1.45;;
29838;SDS011;18669;53.356;-1.464;2023-04-01T13:18:32;4.32;;;1.00;;
29838;SDS011;18669;53.356;-1.464;2023-04-01T13:25:20;3.67;;;1.23;;
29838;SDS011;18669;53.356;-1.464;2023-04-01T13:27:45;2.97;;;1.25;;
29838;SDS011;18669;53.356;-1.464;2023-04-01T13:34:03;3.35;;;1.48;;
29838;SDS011;18669;53.356;-1.464;2023-04-01T13:43:04;1.75;;;1.40;;
29838;SDS011;18669;53.356;-1.464;2023-04-01T14:01:31;6.45;;;1.92;;
29838;SDS011;18669;53.356;-1.464;2023-04-01T14:10:23;2.90;;;1.58;;
29838;SDS011;18669;53.356;-1.464;2023-04-01T14:13:40;2.97;;;1.15;;
29838;SDS011;18669;53.356;-1.464;2023-04-01T14:22:38;3.58;;;2.03;;
29838;SDS011;18669;53.356;-1.464;2023-04-01T14:32:23;5.95;;;1.65;;
29838;SDS011;18669;53.356;-1.464;2023-04-01T14:44:44;2.35;;;1.48;;
29838;SDS011;18669;53.356;-1.464;2023-04-01T14:50:54;3.65;;;1.67;;
29838;SDS011;18669;53.356;-1.464;2023-04-01T14:53:43;10.13;;;2.60;;
29838;SDS011;18669;53.356;-1.464;2023-04-01T14:56:41;5.82;;;3.05;;
29838;SDS011;18669;53.356;-1.464;2023-04-01T14:59:28;7.22;;;4.03;;
29838;SDS011;18669;53.356;-1.464;2023-04-01T15:05:26;6.85;;;1.90;;
29838;SDS011;18669;53.356;-1.464;2023-04-01T15:39:23;4.68;;;1.70;;
29838;SDS011;18669;53.356;-1.464;2023-04-01T15:48:40;3.95;;;1.90;;
29838;SDS011;18669;53.356;-1.464;2023-04-01T16:00:29;5.53;;;2.25;;
29838;SDS011;18669;53.356;-1.464;2023-04-01T16:10:52;5.60;;;2.95;;
29838;SDS011;18669;53.356;-1.464;2023-04-01T16:27:50;11.05;;;2.97;;
29838;SDS011;18669;53.356;-1.464;2023-04-01T16:30:58;4.95;;;3.15;;
29838;SDS011;18669;53.356;-1.464;2023-04-01T16:34:02;11.50;;;3.63;;
29838;SDS011;18669;53.356;-1.464;2023-04-01T16:36:55;8.00;;;3.00;;
29838;SDS011;18669;53.356;-1.464;2023-04-01T16:49:03;8.90;;;3.75;;
29838;SDS011;18669;53.356;-1.464;2023-04-01T16:51:54;11.52;;;3.90;;
29838;SDS011;18669;53.356;-1.464;2023-04-01T16:54:53;10.23;;;4.20;;
29838;SDS011;18669;53.356;-1.464;2023-04-01T16:57:49;11.45;;;3.72;;
29838;SDS011;18669;53.356;-1.464;2023-04-01T17:00:40;7.35;;;3.13;;
29838;SDS011;18669;53.356;-1.464;2023-04-01T17:03:45;10.88;;;3.50;;
29838;SDS011;18669;53.356;-1.464;2023-04-01T17:06:43;9.23;;;3.67;;
29838;SDS011;18669;53.356;-1.464;2023-04-01T17:25:25;8.32;;;4.03;;
29838;SDS011;18669;53.356;-1.464;2023-04-01T17:34:24;6.82;;;3.22;;
29838;SDS011;18669;53.356;-1.464;2023-04-01T17:40:21;9.98;;;3.90;;
29838;SDS011;18669;53.356;-1.464;2023-04-01T17:43:40;9.90;;;3.72;;
29838;SDS011;18669;53.356;-1.464;2023-04-01T17:55:53;6.57;;;3.42;;
29838;SDS011;18669;53.356;-1.464;2023-04-01T17:58:53;9.63;;;4.18;;
29838;SDS011;18669;53.356;-1.464;2023-04-01T18:01:52;6.20;;;3.45;;
29838;SDS011;18669;53.356;-1.464;2023-04-01T18:25:28;6.90;;;3.55;;
29838;SDS011;18669;53.356;-1.464;2023-04-01T18:28:38;7.78;;;3.13;;
29838;SDS011;18669;53.356;-1.464;2023-04-01T18:31:38;5.63;;;3.17;;
29838;SDS011;18669;53.356;-1.464;2023-04-01T18:34:39;5.88;;;3.00;;
29838;SDS011;18669;53.356;-1.464;2023-04-01T18:46:45;7.15;;;3.50;;
29838;SDS011;18669;53.356;-1.464;2023-04-01T18:53:17;9.40;;;4.18;;
29838;SDS011;18669;53.356;-1.464;2023-04-01T18:56:15;9.02;;;4.15;;
29838;SDS011;18669;53.356;-1.464;2023-04-01T18:59:12;5.55;;;4.25;;
29838;SDS011;18669;53.356;-1.464;2023-04-01T19:11:26;9.43;;;6.30;;
29838;SDS011;18669;53.356;-1.464;2023-04-01T19:14:51;5.55;;;4.22;;
29838;SDS011;18669;53.356;-1.464;2023-04-01T19:17:53;11.93;;;4.85;;
29838;SDS011;18669;53.356;-1.464;2023-04-01T19:20:54;5.88;;;4.40;;
29838;SDS011;18669;53.356;-1.464;2023-04-01T19:27:14;8.10;;;3.50;;
29838;SDS011;18669;53.356;-1.464;2023-04-01T19:39:24;5.63;;;3.88;;
29838;SDS011;18669;53.356;-1.464;2023-04-01T19:42:35;4.38;;;3.45;;
29838;SDS011;18669;53.356;-1.464;2023-04-01T19:45:34;4.82;;;3.60;;
29838;SDS011;18669;53.356;-1.464;2023-04-01T19:48:40;10.00;;;3.95;;
29838;SDS011;18669;53.356;-1.464;2023-04-01T19:54:49;6.90;;;3.50;;
29838;SDS011;18669;53.356;-1.464;2023-04-01T20:00:53;4.80;;;2.15;;
29838;SDS011;18669;53.356;-1.464;2023-04-01T20:07:07;5.57;;;2.40;;
29838;SDS011;18669;53.356;-1.464;2023-04-01T20:10:10;6.63;;;2.88;;
29838;SDS011;18669;53.356;-1.464;2023-04-01T20:16:03;7.50;;;3.03;;
29838;SDS011;18669;53.356;-1.464;2023-04-01T20:18:51;8.00;;;3.30;;
29838;SDS011;18669;53.356;-1.464;2023-04-01T20:21:43;7.55;;;3.53;;
29838;SDS011;18669;53.356;-1.464;2023-04-01T20:24:41;6.85;;;3.58;;
29838;SDS011;18669;53.356;-1.464;2023-04-01T20:27:31;7.20;;;3.75;;
29838;SDS011;18669;53.356;-1.464;2023-04-01T20:33:43;6.80;;;4.05;;
29838;SDS011;18669;53.356;-1.464;2023-04-01T20:51:31;9.10;;;3.70;;
29838;SDS011;18669;53.356;-1.464;2023-04-01T20:54:47;5.55;;;3.25;;
29838;SDS011;18669;53.356;-1.464;2023-04-01T20:57:58;9.32;;;3.53;;
29838;SDS011;18669;53.356;-1.464;2023-04-01T21:01:14;8.55;;;3.00;;
29838;SDS011;18669;53.356;-1.464;2023-04-01T21:04:08;7.00;;;3.10;;
29838;SDS011;18669;53.356;-1.464;2023-04-01T21:16:25;5.20;;;2.67;;
29838;SDS011;18669;53.356;-1.464;2023-04-01T21:34:50;10.15;;;2.90;;
29838;SDS011;18669;53.356;-1.464;2023-04-01T21:37:49;5.93;;;2.90;;
29838;SDS011;18669;53.356;-1.464;2023-04-01T22:05:21;8.00;;;3.50;;
29838;SDS011;18669;53.356;-1.464;2023-04-01T22:14:04;8.45;;;3.50;;
29838;SDS011;18669;53.356;-1.464;2023-04-01T22:16:59;10.73;;;4.10;;
29838;SDS011;18669;53.356;-1.464;2023-04-01T22:19:59;4.60;;;3.60;;
29838;SDS011;18669;53.356;-1.464;2023-04-01T22:22:55;10.38;;;4.00;;
29838;SDS011;18669;53.356;-1.464;2023-04-01T22:26:05;8.90;;;3.85;;
29838;SDS011;18669;53.356;-1.464;2023-04-01T22:32:02;7.63;;;4.43;;
29838;SDS011;18669;53.356;-1.464;2023-04-01T22:38:23;8.55;;;4.80;;
29838;SDS011;18669;53.356;-1.464;2023-04-01T22:47:53;9.40;;;4.30;;
29838;SDS011;18669;53.356;-1.464;2023-04-01T22:56:47;8.32;;;5.07;;
29838;SDS011;18669;53.356;-1.464;2023-04-01T23:11:39;8.90;;;4.95;;
29838;SDS011;18669;53.356;-1.464;2023-04-01T23:14:33;10.48;;;4.75;;
29838;SDS011;18669;53.356;-1.464;2023-04-01T23:20:30;9.32;;;4.80;;
29838;SDS011;18669;53.356;-1.464;2023-04-01T23:24:21;10.55;;;5.18;;
29838;SDS011;18669;53.356;-1.464;2023-04-01T23:26:52;8.95;;;5.07;;
29838;SDS011;18669;53.356;-1.464;2023-04-01T23:29:42;8.25;;;4.95;;
29838;SDS011;18669;53.356;-1.464;2023-04-01T23:32:27;12.75;;;5.78;;
29838;SDS011;18669;53.356;-1.464;2023-04-01T23:35:14;15.82;;;6.05;;
29838;SDS011;18669;53.356;-1.464;2023-04-01T23:38:00;11.43;;;6.55;;
29838;SDS011;18669;53.356;-1.464;2023-04-01T23:40:49;14.18;;;6.18;;
29838;SDS011;18669;53.356;-1.464;2023-04-01T23:43:39;10.60;;;5.82;;
29838;SDS011;18669;53.356;-1.464;2023-04-01T23:46:27;9.13;;;5.72;;
29838;SDS011;18669;53.356;-1.464;2023-04-01T23:49:19;16.02;;;6.20;;
29838;SDS011;18669;53.356;-1.464;2023-04-01T23:55:25;13.05;;;5.68;;
29838;SDS011;18669;53.356;-1.464;2023-04-01T23:58:21;13.27;;;6.03;;
